地図

経路データ

SID SEASON NUMBER BASIN SUBBASIN NAME ISO_TIME NATURE LAT LON WMO_WIND WMO_PRES WMO_AGENCY TRACK_TYPE DIST2LAND LANDFALL IFLAG USA_AGENCY USA_ATCF_ID USA_LAT USA_LON USA_RECORD USA_STATUS USA_WIND USA_PRES USA_SSHS USA_R34_NE USA_R34_SE USA_R34_SW USA_R34_NW USA_R50_NE USA_R50_SE USA_R50_SW USA_R50_NW USA_R64_NE USA_R64_SE USA_R64_SW USA_R64_NW USA_POCI USA_ROCI USA_RMW USA_EYE TOKYO_LAT TOKYO_LON TOKYO_GRADE TOKYO_WIND TOKYO_PRES TOKYO_R50_DIR TOKYO_R50_LONG TOKYO_R50_SHORT TOKYO_R30_DIR TOKYO_R30_LONG TOKYO_R30_SHORT TOKYO_LAND CMA_LAT CMA_LON CMA_CAT CMA_WIND CMA_PRES HKO_LAT HKO_LON HKO_CAT HKO_WIND HKO_PRES NEWDELHI_LAT NEWDELHI_LON NEWDELHI_GRADE NEWDELHI_WIND NEWDELHI_PRES NEWDELHI_CI NEWDELHI_DP NEWDELHI_POCI REUNION_LAT REUNION_LON REUNION_TYPE REUNION_WIND REUNION_PRES REUNION_TNUM REUNION_CI REUNION_RMW REUNION_R34_NE REUNION_R34_SE REUNION_R34_SW REUNION_R34_NW REUNION_R50_NE REUNION_R50_SE REUNION_R50_SW REUNION_R50_NW REUNION_R64_NE REUNION_R64_SE REUNION_R64_SW REUNION_R64_NW BOM_LAT BOM_LON BOM_TYPE BOM_WIND BOM_PRES BOM_TNUM BOM_CI BOM_RMW BOM_R34_NE BOM_R34_SE BOM_R34_SW BOM_R34_NW BOM_R50_NE BOM_R50_SE BOM_R50_SW BOM_R50_NW BOM_R64_NE BOM_R64_SE BOM_R64_SW BOM_R64_NW BOM_ROCI BOM_POCI BOM_EYE BOM_POS_METHOD BOM_PRES_METHOD NADI_LAT NADI_LON NADI_CAT NADI_WIND NADI_PRES WELLINGTON_LAT WELLINGTON_LON WELLINGTON_WIND WELLINGTON_PRES DS824_LAT DS824_LON DS824_STAGE DS824_WIND DS824_PRES TD9636_LAT TD9636_LON TD9636_STAGE TD9636_WIND TD9636_PRES TD9635_LAT TD9635_LON TD9635_WIND TD9635_PRES TD9635_ROCI NEUMANN_LAT NEUMANN_LON NEUMANN_CLASS NEUMANN_WIND NEUMANN_PRES MLC_LAT MLC_LON MLC_CLASS MLC_WIND MLC_PRES USA_GUST BOM_GUST BOM_GUST_PER REUNION_GUST REUNION_GUST_PER USA_SEAHGT USA_SEARAD_NE USA_SEARAD_SE USA_SEARAD_SW USA_SEARAD_NW STORM_SPEED STORM_DIR
1963291N26288 1963 104 NA NA GINNY 1963-10-17 18:00:00 TS 25.5000 -72.0000 20 hurdat_atl main 491 491 O_____________ hurdat_atl AL081963 25.5000 -72.0000 TD 20 -1 6 28
1963291N26288 1963 104 NA NA GINNY 1963-10-17 21:00:00 TS 25.7500 -71.8526 main 526 526 P_____________ AL081963 25.7500 -71.8526 TD 20 -1 6 29
1963291N26288 1963 104 NA NA GINNY 1963-10-18 00:00:00 TS 26.0000 -71.7000 20 hurdat_atl main 552 552 O_____________ hurdat_atl AL081963 26.0000 -71.7000 TD 20 -1 6 29
1963291N26288 1963 104 NA NA GINNY 1963-10-18 03:00:00 TS 26.2500 -71.5425 main 590 590 P_____________ AL081963 26.2500 -71.5425 TD 22 -1 6 28
1963291N26288 1963 104 NA NA GINNY 1963-10-18 06:00:00 TS 26.5000 -71.4000 25 hurdat_atl main 614 614 O_____________ hurdat_atl AL081963 26.5000 -71.4000 TD 25 -1 5 27
1963291N26288 1963 104 NA NA GINNY 1963-10-18 09:00:00 TS 26.7275 -71.2775 main 638 638 P_____________ AL081963 26.7275 -71.2775 TD 27 -1 5 20
1963291N26288 1963 104 NA NA GINNY 1963-10-18 12:00:00 TS 27.0000 -71.2000 30 hurdat_atl main 673 673 O_____________ hurdat_atl AL081963 27.0000 -71.2000 TD 30 -1 7 7
1963291N26288 1963 104 NA NA GINNY 1963-10-18 15:00:00 TS 27.3850 -71.1849 main 716 716 P_____________ AL081963 27.3850 -71.1849 TD 30 -1 8 1
1963291N26288 1963 104 NA NA GINNY 1963-10-18 18:00:00 TS 27.8000 -71.2000 30 hurdat_atl main 740 740 O_____________ hurdat_atl AL081963 27.8000 -71.2000 TD 30 -1 8 0
1963291N26288 1963 104 NA NA GINNY 1963-10-18 21:00:00 TS 28.1350 -71.1926 main 753 753 P_____________ AL081963 28.1350 -71.1926 TD 30 -1 7 0
1963291N26288 1963 104 NA NA GINNY 1963-10-19 00:00:00 TS 28.5000 -71.2000 30 hurdat_atl main 773 773 O_____________ hurdat_atl AL081963 28.5000 -71.2000 TD 30 -1 8 0
1963291N26288 1963 104 NA NA GINNY 1963-10-19 03:00:00 TS 28.9549 -71.2130 main 801 758 P_____________ AL081963 28.9549 -71.2130 TD 32 -1 10 355
1963291N26288 1963 104 NA NA GINNY 1963-10-19 06:00:00 TS 29.5000 -71.3000 35 hurdat_atl main 758 694 O_____________ hurdat_atl AL081963 29.5000 -71.3000 TS 35 0 12 348
1963291N26288 1963 104 NA NA GINNY 1963-10-19 09:00:00 TS 30.1349 -71.4976 main 694 617 P_____________ AL081963 30.1349 -71.4976 TS 40 0 14 342
1963291N26288 1963 104 NA NA GINNY 1963-10-19 12:00:00 TS 30.8000 -71.8000 45 hurdat_atl main 617 550 O_____________ hurdat_atl AL081963 30.8000 -71.8000 TS 45 0 14 336
1963291N26288 1963 104 NA NA GINNY 1963-10-19 15:00:00 TS 31.4375 -72.1699 main 543 470 P_____________ AL081963 31.4375 -72.1699 TS 50 0 14 330
1963291N26288 1963 104 NA NA GINNY 1963-10-19 18:00:00 TS 32.0000 -72.6000 55 992 hurdat_atl main 470 412 O_____________ hurdat_atl AL081963 32.0000 -72.6000 TS 55 992 0 13 323
1963291N26288 1963 104 NA NA GINNY 1963-10-19 21:00:00 TS 32.4450 -73.0504 main 405 348 P_____________ AL081963 32.4450 -73.0504 TS 57 990 0 11 316
1963291N26288 1963 104 NA NA GINNY 1963-10-20 00:00:00 TS 32.8000 -73.5000 60 989 hurdat_atl main 348 298 O_____________ hurdat_atl AL081963 32.8000 -73.5000 TS 60 989 0 10 314
1963291N26288 1963 104 NA NA GINNY 1963-10-20 03:00:00 TS 33.1524 -73.9150 main 290 248 P_____________ AL081963 33.1524 -73.9150 TS 60 987 0 9 312
1963291N26288 1963 104 NA NA GINNY 1963-10-20 06:00:00 TS 33.4000 -74.3000 60 hurdat_atl main 248 212 I_____________ hurdat_atl AL081963 33.4000 -74.3000 TS 60 986 0 7 297
1963291N26288 1963 104 NA NA GINNY 1963-10-20 09:00:00 TS 33.4799 -74.6731 main 212 192 P_____________ AL081963 33.4799 -74.6731 TS 62 984 0 6 280
1963291N26288 1963 104 NA NA GINNY 1963-10-20 12:00:00 TS 33.5000 -75.0000 65 983 hurdat_atl main 192 164 O_____________ hurdat_atl AL081963 33.5000 -75.0000 HU 65 983 1 5 281
1963291N26288 1963 104 NA NA GINNY 1963-10-20 15:00:00 TS 33.5850 -75.3024 main 164 144 P_____________ AL081963 33.5850 -75.3024 HU 67 1 5 296
1963291N26288 1963 104 NA NA GINNY 1963-10-20 18:00:00 TS 33.7000 -75.5000 70 hurdat_atl main 144 129 O_____________ hurdat_atl AL081963 33.7000 -75.5000 HU 70 1 3 319
1963291N26288 1963 104 NA NA GINNY 1963-10-20 21:00:00 TS 33.8498 -75.5750 main 129 120 P_____________ AL081963 33.8498 -75.5750 HU 72 1 3 0
1963291N26288 1963 104 NA NA GINNY 1963-10-21 00:00:00 TS 34.0000 -75.5000 75 hurdat_atl main 120 120 O_____________ hurdat_atl AL081963 34.0000 -75.5000 HU 75 1 4 40
1963291N26288 1963 104 NA NA GINNY 1963-10-21 03:00:00 TS 34.1376 -75.2803 main 127 127 P_____________ AL081963 34.1376 -75.2803 HU 77 1 5 64
1963291N26288 1963 104 NA NA GINNY 1963-10-21 06:00:00 TS 34.2000 -75.0000 80 hurdat_atl main 142 142 O_____________ hurdat_atl AL081963 34.2000 -75.0000 HU 80 1 4 89
1963291N26288 1963 104 NA NA GINNY 1963-10-21 09:00:00 TS 34.1449 -74.7924 main 163 163 P_____________ AL081963 34.1449 -74.7924 HU 80 1 4 121
1963291N26288 1963 104 NA NA GINNY 1963-10-21 12:00:00 TS 34.0000 -74.6000 80 hurdat_atl main 185 185 O_____________ hurdat_atl AL081963 34.0000 -74.6000 HU 80 1 5 133
1963291N26288 1963 104 NA NA GINNY 1963-10-21 15:00:00 TS 33.8300 -74.3849 main 212 212 P_____________ AL081963 33.8300 -74.3849 HU 80 1 5 140
1963291N26288 1963 104 NA NA GINNY 1963-10-21 18:00:00 TS 33.6000 -74.2000 80 hurdat_atl main 241 241 O_____________ hurdat_atl AL081963 33.6000 -74.2000 HU 80 1 6 150
1963291N26288 1963 104 NA NA GINNY 1963-10-21 21:00:00 TS 33.3299 -74.0396 main 276 276 P_____________ AL081963 33.3299 -74.0396 HU 77 1 6 164
1963291N26288 1963 104 NA NA GINNY 1963-10-22 00:00:00 TS 33.0000 -74.0000 75 hurdat_atl main 298 298 O_____________ hurdat_atl AL081963 33.0000 -74.0000 HU 75 1 7 187
1963291N26288 1963 104 NA NA GINNY 1963-10-22 03:00:00 TS 32.6076 -74.1555 main 316 316 P_____________ AL081963 32.6076 -74.1555 HU 72 1 9 203
1963291N26288 1963 104 NA NA GINNY 1963-10-22 06:00:00 TS 32.2000 -74.4000 70 hurdat_atl main 339 339 O_____________ hurdat_atl AL081963 32.2000 -74.4000 HU 70 1 9 206
1963291N26288 1963 104 NA NA GINNY 1963-10-22 09:00:00 TS 31.8424 -74.5922 main 368 368 P_____________ AL081963 31.8424 -74.5922 HU 67 1 8 206
1963291N26288 1963 104 NA NA GINNY 1963-10-22 12:00:00 TS 31.5000 -74.8000 65 hurdat_atl main 390 390 O_____________ hurdat_atl AL081963 31.5000 -74.8000 HU 65 1 8 208
1963291N26288 1963 104 NA NA GINNY 1963-10-22 15:00:00 TS 31.1424 -75.0273 main 419 413 P_____________ AL081963 31.1424 -75.0273 HU 65 1 8 211
1963291N26288 1963 104 NA NA GINNY 1963-10-22 18:00:00 TS 30.8000 -75.3000 65 989 hurdat_atl main 428 428 O_____________ hurdat_atl AL081963 30.8000 -75.3000 HU 65 989 1 8 218
1963291N26288 1963 104 NA NA GINNY 1963-10-22 21:00:00 TS 30.4924 -75.6197 main 441 436 P_____________ AL081963 30.4924 -75.6197 HU 65 990 1 9 225
1963291N26288 1963 104 NA NA GINNY 1963-10-23 00:00:00 TS 30.2000 -76.0000 65 991 hurdat_atl main 448 427 O_____________ hurdat_atl AL081963 30.2000 -76.0000 HU 65 991 1 9 230
1963291N26288 1963 104 NA NA GINNY 1963-10-23 03:00:00 TS 29.9001 -76.4424 main 427 370 P_____________ AL081963 29.9001 -76.4424 HU 65 989 1 10 232
1963291N26288 1963 104 NA NA GINNY 1963-10-23 06:00:00 TS 29.6000 -76.9000 65 988 hurdat_atl main 370 323 O_____________ hurdat_atl AL081963 29.6000 -76.9000 HU 65 988 1 10 231
1963291N26288 1963 104 NA NA GINNY 1963-10-23 09:00:00 TS 29.2700 -77.3301 main 323 278 P_____________ AL081963 29.2700 -77.3301 HU 65 989 1 9 229
1963291N26288 1963 104 NA NA GINNY 1963-10-23 12:00:00 TS 29.0000 -77.7000 65 990 hurdat_atl main 278 247 O_____________ hurdat_atl AL081963 29.0000 -77.7000 HU 65 990 1 7 234
1963291N26288 1963 104 NA NA GINNY 1963-10-23 15:00:00 TS 28.8548 -77.9797 main 247 226 P_____________ AL081963 28.8548 -77.9797 HU 65 990 1 5 246
1963291N26288 1963 104 NA NA GINNY 1963-10-23 18:00:00 TS 28.8000 -78.2000 65 990 hurdat_atl main 226 207 O_____________ hurdat_atl AL081963 28.8000 -78.2000 HU 65 990 1 4 257
1963291N26288 1963 104 NA NA GINNY 1963-10-23 21:00:00 TS 28.7699 -78.4075 main 207 188 P_____________ AL081963 28.7699 -78.4075 HU 67 989 1 4 270
1963291N26288 1963 104 NA NA GINNY 1963-10-24 00:00:00 TS 28.8000 -78.6000 70 988 hurdat_atl main 188 171 O_____________ hurdat_atl AL081963 28.8000 -78.6000 HU 70 988 1 4 288
1963291N26288 1963 104 NA NA GINNY 1963-10-24 03:00:00 TS 28.8774 -78.7925 main 171 156 P_____________ AL081963 28.8774 -78.7925 HU 70 988 1 4 300
1963291N26288 1963 104 NA NA GINNY 1963-10-24 06:00:00 TS 29.0000 -79.0000 70 hurdat_atl main 156 134 I_____________ hurdat_atl AL081963 29.0000 -79.0000 HU 70 989 1 5 302
1963291N26288 1963 104 NA NA GINNY 1963-10-24 09:00:00 TS 29.1351 -79.2649 main 134 132 P_____________ AL081963 29.1351 -79.2649 HU 70 989 1 5 305
1963291N26288 1963 104 NA NA GINNY 1963-10-24 12:00:00 TS 29.3000 -79.5000 70 990 hurdat_atl main 132 129 O_____________ hurdat_atl AL081963 29.3000 -79.5000 HU 70 990 1 5 316
1963291N26288 1963 104 NA NA GINNY 1963-10-24 15:00:00 TS 29.4699 -79.6375 main 133 124 P_____________ AL081963 29.4699 -79.6375 HU 70 987 1 4 337
1963291N26288 1963 104 NA NA GINNY 1963-10-24 18:00:00 TS 29.7000 -79.7000 70 985 hurdat_atl main 134 134 O_____________ hurdat_atl AL081963 29.7000 -79.7000 HU 70 985 1 6 353
1963291N26288 1963 104 NA NA GINNY 1963-10-24 21:00:00 TS 30.0275 -79.7151 main 150 150 P_____________ AL081963 30.0275 -79.7151 HU 72 983 1 7 0
1963291N26288 1963 104 NA NA GINNY 1963-10-25 00:00:00 TS 30.4000 -79.7000 75 982 hurdat_atl main 165 162 O_____________ hurdat_atl AL081963 30.4000 -79.7000 HU 75 982 1 7 0
1963291N26288 1963 104 NA NA GINNY 1963-10-25 03:00:00 TS 30.7500 -79.7074 main 162 144 P_____________ AL081963 30.7500 -79.7074 HU 77 980 1 7 0
1963291N26288 1963 104 NA NA GINNY 1963-10-25 06:00:00 TS 31.1000 -79.7000 80 hurdat_atl main 144 121 I_____________ hurdat_atl AL081963 31.1000 -79.7000 HU 80 979 1 7 0
1963291N26288 1963 104 NA NA GINNY 1963-10-25 09:00:00 TS 31.4799 -79.6948 main 121 96 P_____________ AL081963 31.4799 -79.6948 HU 80 977 1 7 7
1963291N26288 1963 104 NA NA GINNY 1963-10-25 12:00:00 TS 31.8000 -79.6000 80 976 hurdat_atl main 96 87 O_____________ hurdat_atl AL081963 31.8000 -79.6000 HU 80 976 1 6 31
1963291N26288 1963 104 NA NA GINNY 1963-10-25 15:00:00 TS 31.9725 -79.3523 main 87 87 P_____________ AL081963 31.9725 -79.3523 HU 75 980 1 6 59
1963291N26288 1963 104 NA NA GINNY 1963-10-25 18:00:00 TS 32.1000 -79.0000 70 985 hurdat_atl main 107 100 O_____________ hurdat_atl AL081963 32.1000 -79.0000 HU 70 985 1 7 64
1963291N26288 1963 104 NA NA GINNY 1963-10-25 21:00:00 TS 32.2776 -78.6074 main 108 108 P_____________ AL081963 32.2776 -78.6074 HU 70 985 1 8 59
1963291N26288 1963 104 NA NA GINNY 1963-10-26 00:00:00 TS 32.5000 -78.2000 70 985 hurdat_atl main 121 121 O_____________ hurdat_atl AL081963 32.5000 -78.2000 HU 70 985 1 8 50
1963291N26288 1963 104 NA NA GINNY 1963-10-26 03:00:00 TS 32.8224 -77.8354 main 124 96 P_____________ AL081963 32.8224 -77.8354 HU 70 984 1 8 44
1963291N26288 1963 104 NA NA GINNY 1963-10-26 06:00:00 TS 33.1000 -77.5000 70 983 hurdat_atl main 100 95 O_____________ hurdat_atl AL081963 33.1000 -77.5000 HU 70 983 1 7 55
1963291N26288 1963 104 NA NA GINNY 1963-10-26 09:00:00 TS 33.2100 -77.1772 main 107 107 P_____________ AL081963 33.2100 -77.1772 HU 70 984 1 5 79
1963291N26288 1963 104 NA NA GINNY 1963-10-26 12:00:00 TS 33.2000 -76.9000 70 986 hurdat_atl main 128 128 O_____________ hurdat_atl AL081963 33.2000 -76.9000 HU 70 986 1 4 103
1963291N26288 1963 104 NA NA GINNY 1963-10-26 15:00:00 TS 33.1149 -76.6773 main 149 149 P_____________ AL081963 33.1149 -76.6773 HU 72 982 1 4 121
1963291N26288 1963 104 NA NA GINNY 1963-10-26 18:00:00 TS 33.0000 -76.5000 75 978 hurdat_atl main 171 171 O_____________ hurdat_atl AL081963 33.0000 -76.5000 HU 75 978 1 3 123
1963291N26288 1963 104 NA NA GINNY 1963-10-26 21:00:00 TS 32.9350 -76.3425 main 192 192 P_____________ AL081963 32.9350 -76.3425 HU 75 978 1 3 112
1963291N26288 1963 104 NA NA GINNY 1963-10-27 00:00:00 TS 32.9000 -76.2000 75 979 hurdat_atl main 200 200 O_____________ hurdat_atl AL081963 32.9000 -76.2000 HU 75 979 1 2 100
1963291N26288 1963 104 NA NA GINNY 1963-10-27 03:00:00 TS 32.8924 -76.0650 main 204 204 P_____________ AL081963 32.8924 -76.0650 HU 77 975 1 3 90
1963291N26288 1963 104 NA NA GINNY 1963-10-27 06:00:00 TS 32.9000 -75.9000 80 972 hurdat_atl main 208 208 O_____________ hurdat_atl AL081963 32.9000 -75.9000 HU 80 972 1 3 86
1963291N26288 1963 104 NA NA GINNY 1963-10-27 09:00:00 TS 32.9149 -75.6877 main 213 213 P_____________ AL081963 32.9149 -75.6877 HU 80 972 1 4 90
1963291N26288 1963 104 NA NA GINNY 1963-10-27 12:00:00 TS 32.9000 -75.4000 80 hurdat_atl main 224 224 I_____________ hurdat_atl AL081963 32.9000 -75.4000 HU 80 973 1 6 102
1963291N26288 1963 104 NA NA GINNY 1963-10-27 15:00:00 TS 32.8000 -75.0297 main 253 253 P_____________ AL081963 32.8000 -75.0297 HU 80 974 1 7 107
1963291N26288 1963 104 NA NA GINNY 1963-10-27 18:00:00 TS 32.7000 -74.6000 80 975 hurdat_atl main 283 283 O_____________ hurdat_atl AL081963 32.7000 -74.6000 HU 80 975 1 8 102
1963291N26288 1963 104 NA NA GINNY 1963-10-27 21:00:00 TS 32.6476 -74.1422 main 322 320 P_____________ AL081963 32.6476 -74.1422 HU 82 972 1 8 90
1963291N26288 1963 104 NA NA GINNY 1963-10-28 00:00:00 TS 32.7000 -73.7000 85 970 hurdat_atl main 341 341 O_____________ hurdat_atl AL081963 32.7000 -73.7000 HU 85 970 2 7 70
1963291N26288 1963 104 NA NA GINNY 1963-10-28 03:00:00 TS 32.8973 -73.3350 main 355 348 P_____________ AL081963 32.8973 -73.3350 HU 85 969 2 8 50
1963291N26288 1963 104 NA NA GINNY 1963-10-28 06:00:00 TS 33.2000 -73.0000 85 hurdat_atl main 357 357 I_____________ hurdat_atl AL081963 33.2000 -73.0000 HU 85 969 2 8 43
1963291N26288 1963 104 NA NA GINNY 1963-10-28 09:00:00 TS 33.4973 -72.6568 main 360 359 P_____________ AL081963 33.4973 -72.6568 HU 87 968 2 9 40
1963291N26288 1963 104 NA NA GINNY 1963-10-28 12:00:00 TS 33.9000 -72.3000 90 968 hurdat_atl main 360 351 O_____________ hurdat_atl AL081963 33.9000 -72.3000 HU 90 968 2 11 32
1963291N26288 1963 104 NA NA GINNY 1963-10-28 15:00:00 TS 34.4621 -71.9369 main 357 352 P_____________ AL081963 34.4621 -71.9369 HU 92 965 2 14 29
1963291N26288 1963 104 NA NA GINNY 1963-10-28 18:00:00 TS 35.1000 -71.5000 95 963 hurdat_atl main 369 369 O_____________ hurdat_atl AL081963 35.1000 -71.5000 HU 95 963 2 14 34
1963291N26288 1963 104 NA NA GINNY 1963-10-28 21:00:00 TS 35.6548 -70.9504 main 405 405 P_____________ AL081963 35.6548 -70.9504 HU 95 2 15 39
1963291N26288 1963 104 NA NA GINNY 1963-10-29 00:00:00 TS 36.3000 -70.3000 95 hurdat_atl main 469 469 O_____________ hurdat_atl AL081963 36.3000 -70.3000 HU 95 2 18 38
1963291N26288 1963 104 NA NA GINNY 1963-10-29 03:00:00 TS 37.0875 -69.5775 main 486 418 P_____________ AL081963 37.0875 -69.5775 HU 95 2 22 34
1963291N26288 1963 104 NA NA GINNY 1963-10-29 06:00:00 TS 38.1000 -68.8000 95 hurdat_atl main 411 315 O_____________ hurdat_atl AL081963 38.1000 -68.8000 HU 95 2 26 29
1963291N26288 1963 104 NA NA GINNY 1963-10-29 09:00:00 TS 39.3383 -68.0000 main 315 256 P_____________ AL081963 39.3383 -68.0000 HU 95 2 30 25
1963291N26288 1963 104 NA NA GINNY 1963-10-29 12:00:00 TS 40.8000 -67.2000 95 948 hurdat_atl main 253 134 O_____________ hurdat_atl AL081963 40.8000 -67.2000 HU 95 948 2 34 21
1963291N26288 1963 104 NA NA GINNY 1963-10-29 15:00:00 TS 42.5325 -66.3891 main 124 0 P_____________ AL081963 42.5325 -66.3891 HU 92 948 2 35 19
1963291N26288 1963 104 NA NA GINNY 1963-10-29 17:30:00 TS 43.8000 -65.8000 90 948 hurdat_atl main 0 0 O_____________ hurdat_atl AL081963 43.8000 -65.8000 L HU 90 948 2 31 19
1963291N26288 1963 104 NA NA GINNY 1963-10-29 18:00:00 TS 44.0000 -65.7000 90 948 hurdat_atl main 0 0 O_____________ hurdat_atl AL081963 44.0000 -65.7000 HU 90 948 2 31 21
1963291N26288 1963 104 NA NA GINNY 1963-10-29 21:00:00 TS 45.4701 -64.8901 main 11 0 P_____________ AL081963 45.4701 -64.8901 HU 80 1 32 22
1963291N26288 1963 104 NA NA GINNY 1963-10-30 00:00:00 ET 47.0000 -64.0000 70 hurdat_atl main 0 0 O_____________ hurdat_atl AL081963 47.0000 -64.0000 EX 70 -4 29 21
1963291N26288 1963 104 NA NA GINNY 1963-10-30 03:00:00 ET 48.1341 -63.3960 main 73 23 P_____________ AL081963 48.1341 -63.3960 EX 60 -4 21 18
1963291N26288 1963 104 NA NA GINNY 1963-10-30 06:00:00 ET 49.0000 -63.0000 50 hurdat_atl main 23 O_____________ hurdat_atl AL081963 49.0000 -63.0000 EX 50 -4 18 17

IBTrACS Databaseについて

本データベースは、米国NOAAが公開する1842年以降の世界の熱帯低気圧のベストトラックデータアーカイブInternational Best Track Archive for Climate Stewardship (IBTrACS)を、ウェブで閲覧しやすい形式に変換したものです。

最終更新日:2021-11-26